sensor_id;sensor_type;location;lat;lon;timestamp;temperature;humidity
32865;DHT22;19219;44.500;11.188;2023-07-31T00:01:12;23.80;99.90
32865;DHT22;19219;44.500;11.188;2023-07-31T00:03:37;23.80;99.90
32865;DHT22;19219;44.500;11.188;2023-07-31T00:06:03;23.80;99.90
32865;DHT22;19219;44.500;11.188;2023-07-31T00:08:29;23.90;99.90
32865;DHT22;19219;44.500;11.188;2023-07-31T00:10:54;23.90;99.90
32865;DHT22;19219;44.500;11.188;2023-07-31T00:13:20;23.80;99.90
32865;DHT22;19219;44.500;11.188;2023-07-31T00:15:46;23.90;99.90
32865;DHT22;19219;44.500;11.188;2023-07-31T00:18:11;23.80;99.90
32865;DHT22;19219;44.500;11.188;2023-07-31T00:20:37;23.80;99.90
32865;DHT22;19219;44.500;11.188;2023-07-31T00:23:02;23.70;99.90
32865;DHT22;19219;44.500;11.188;2023-07-31T00:25:28;23.70;99.90
32865;DHT22;19219;44.500;11.188;2023-07-31T00:27:54;23.70;99.90
32865;DHT22;19219;44.500;11.188;2023-07-31T00:30:19;23.50;99.90
32865;DHT22;19219;44.500;11.188;2023-07-31T00:32:45;23.40;99.90
32865;DHT22;19219;44.500;11.188;2023-07-31T00:35:11;23.40;99.90
32865;DHT22;19219;44.500;11.188;2023-07-31T00:37:36;23.40;99.90
32865;DHT22;19219;44.500;11.188;2023-07-31T00:40:02;23.40;99.90
32865;DHT22;19219;44.500;11.188;2023-07-31T00:42:29;23.40;99.90
32865;DHT22;19219;44.500;11.188;2023-07-31T00:44:54;23.40;99.90
32865;DHT22;19219;44.500;11.188;2023-07-31T00:47:20;23.50;99.90
32865;DHT22;19219;44.500;11.188;2023-07-31T00:49:46;23.50;99.90
32865;DHT22;19219;44.500;11.188;2023-07-31T00:52:12;23.40;99.90
32865;DHT22;19219;44.500;11.188;2023-07-31T00:54:38;23.40;99.90
32865;DHT22;19219;44.500;11.188;2023-07-31T00:57:04;23.20;99.90
32865;DHT22;19219;44.500;11.188;2023-07-31T00:59:30;23.20;99.90
32865;DHT22;19219;44.500;11.188;2023-07-31T01:01:55;23.10;99.90
32865;DHT22;19219;44.500;11.188;2023-07-31T01:04:21;23.00;99.90
32865;DHT22;19219;44.500;11.188;2023-07-31T01:09:45;23.00;99.90
32865;DHT22;19219;44.500;11.188;2023-07-31T01:12:16;23.00;99.90
32865;DHT22;19219;44.500;11.188;2023-07-31T01:15:12;22.90;99.90
32865;DHT22;19219;44.500;11.188;2023-07-31T01:17:39;22.90;99.90
32865;DHT22;19219;44.500;11.188;2023-07-31T01:20:15;22.80;99.90
32865;DHT22;19219;44.500;11.188;2023-07-31T01:23:00;22.70;99.90
32865;DHT22;19219;44.500;11.188;2023-07-31T01:28:31;22.70;99.90
32865;DHT22;19219;44.500;11.188;2023-07-31T01:31:00;22.80;99.90
32865;DHT22;19219;44.500;11.188;2023-07-31T01:33:28;22.90;99.90
32865;DHT22;19219;44.500;11.188;2023-07-31T01:35:54;22.90;99.90
32865;DHT22;19219;44.500;11.188;2023-07-31T01:38:21;22.90;99.90
32865;DHT22;19219;44.500;11.188;2023-07-31T01:40:51;22.90;99.90
32865;DHT22;19219;44.500;11.188;2023-07-31T01:43:18;22.70;99.90
32865;DHT22;19219;44.500;11.188;2023-07-31T01:45:43;22.70;99.90
32865;DHT22;19219;44.500;11.188;2023-07-31T01:48:09;22.60;99.90
32865;DHT22;19219;44.500;11.188;2023-07-31T01:50:35;22.70;99.90
32865;DHT22;19219;44.500;11.188;2023-07-31T01:53:00;22.70;99.90
32865;DHT22;19219;44.500;11.188;2023-07-31T01:55:26;22.70;99.90
32865;DHT22;19219;44.500;11.188;2023-07-31T01:57:52;22.60;99.90
32865;DHT22;19219;44.500;11.188;2023-07-31T02:00:18;22.60;99.90
32865;DHT22;19219;44.500;11.188;2023-07-31T02:02:43;22.50;99.90
32865;DHT22;19219;44.500;11.188;2023-07-31T02:05:09;22.50;99.90
32865;DHT22;19219;44.500;11.188;2023-07-31T02:07:35;22.50;99.90
32865;DHT22;19219;44.500;11.188;2023-07-31T02:10:00;22.50;99.90
32865;DHT22;19219;44.500;11.188;2023-07-31T02:12:26;22.50;99.90
32865;DHT22;19219;44.500;11.188;2023-07-31T02:14:52;22.50;99.90
32865;DHT22;19219;44.500;11.188;2023-07-31T02:17:17;22.50;99.90
32865;DHT22;19219;44.500;11.188;2023-07-31T02:19:43;22.60;99.90
32865;DHT22;19219;44.500;11.188;2023-07-31T02:22:09;22.50;99.90
32865;DHT22;19219;44.500;11.188;2023-07-31T02:24:34;22.40;99.90
32865;DHT22;19219;44.500;11.188;2023-07-31T02:27:00;22.40;99.90
32865;DHT22;19219;44.500;11.188;2023-07-31T02:29:26;22.20;99.90
32865;DHT22;19219;44.500;11.188;2023-07-31T02:31:51;22.20;99.90
32865;DHT22;19219;44.500;11.188;2023-07-31T02:34:17;22.20;99.90
32865;DHT22;19219;44.500;11.188;2023-07-31T02:36:42;22.20;99.90
32865;DHT22;19219;44.500;11.188;2023-07-31T02:39:08;22.20;99.90
32865;DHT22;19219;44.500;11.188;2023-07-31T02:41:34;22.20;99.90
32865;DHT22;19219;44.500;11.188;2023-07-31T02:43:59;22.20;99.90
32865;DHT22;19219;44.500;11.188;2023-07-31T02:46:25;22.20;99.90
32865;DHT22;19219;44.500;11.188;2023-07-31T02:48:51;22.10;99.90
32865;DHT22;19219;44.500;11.188;2023-07-31T02:51:17;22.20;99.90
32865;DHT22;19219;44.500;11.188;2023-07-31T02:53:42;22.20;99.90
32865;DHT22;19219;44.500;11.188;2023-07-31T02:56:08;22.20;99.90
32865;DHT22;19219;44.500;11.188;2023-07-31T02:58:34;22.20;99.90
32865;DHT22;19219;44.500;11.188;2023-07-31T03:00:59;22.20;99.90
32865;DHT22;19219;44.500;11.188;2023-07-31T03:03:25;22.10;99.90
32865;DHT22;19219;44.500;11.188;2023-07-31T03:05:50;22.00;99.90
32865;DHT22;19219;44.500;11.188;2023-07-31T03:08:16;22.00;99.90
32865;DHT22;19219;44.500;11.188;2023-07-31T03:10:42;22.00;99.90
32865;DHT22;19219;44.500;11.188;2023-07-31T03:13:07;21.90;99.90
32865;DHT22;19219;44.500;11.188;2023-07-31T03:15:33;21.90;99.90
32865;DHT22;19219;44.500;11.188;2023-07-31T03:17:59;22.00;99.90
32865;DHT22;19219;44.500;11.188;2023-07-31T03:20:24;21.90;99.90
32865;DHT22;19219;44.500;11.188;2023-07-31T03:22:50;21.90;99.90
32865;DHT22;19219;44.500;11.188;2023-07-31T03:25:16;22.00;99.90
32865;DHT22;19219;44.500;11.188;2023-07-31T03:27:42;22.00;99.90
32865;DHT22;19219;44.500;11.188;2023-07-31T03:30:07;21.90;99.90
32865;DHT22;19219;44.500;11.188;2023-07-31T03:32:33;21.90;99.90
32865;DHT22;19219;44.500;11.188;2023-07-31T03:34:59;21.80;99.90
32865;DHT22;19219;44.500;11.188;2023-07-31T03:37:25;21.80;99.90
32865;DHT22;19219;44.500;11.188;2023-07-31T03:39:51;21.80;99.90
32865;DHT22;19219;44.500;11.188;2023-07-31T03:42:17;21.80;99.90
32865;DHT22;19219;44.500;11.188;2023-07-31T03:44:43;21.80;99.90
32865;DHT22;19219;44.500;11.188;2023-07-31T03:47:08;21.80;99.90
32865;DHT22;19219;44.500;11.188;2023-07-31T03:49:34;21.80;99.90
32865;DHT22;19219;44.500;11.188;2023-07-31T03:52:00;21.80;99.90
32865;DHT22;19219;44.500;11.188;2023-07-31T03:54:25;21.70;99.90
32865;DHT22;19219;44.500;11.188;2023-07-31T03:56:51;21.70;99.90
32865;DHT22;19219;44.500;11.188;2023-07-31T03:59:16;21.70;99.90
32865;DHT22;19219;44.500;11.188;2023-07-31T04:01:42;21.70;99.90
32865;DHT22;19219;44.500;11.188;2023-07-31T04:04:08;21.70;99.90
32865;DHT22;19219;44.500;11.188;2023-07-31T04:06:33;21.70;99.90
32865;DHT22;19219;44.500;11.188;2023-07-31T04:08:59;21.70;99.90
32865;DHT22;19219;44.500;11.188;2023-07-31T04:11:25;21.70;99.90
32865;DHT22;19219;44.500;11.188;2023-07-31T04:13:50;21.70;99.90
32865;DHT22;19219;44.500;11.188;2023-07-31T04:16:16;21.70;99.90
32865;DHT22;19219;44.500;11.188;2023-07-31T04:18:42;21.90;99.90
32865;DHT22;19219;44.500;11.188;2023-07-31T04:21:07;21.90;99.90
32865;DHT22;19219;44.500;11.188;2023-07-31T04:23:33;22.00;99.90
32865;DHT22;19219;44.500;11.188;2023-07-31T04:25:59;22.00;99.90
32865;DHT22;19219;44.500;11.188;2023-07-31T04:28:24;22.00;99.90
32865;DHT22;19219;44.500;11.188;2023-07-31T04:30:51;22.10;99.90
32865;DHT22;19219;44.500;11.188;2023-07-31T04:33:17;22.10;99.90
32865;DHT22;19219;44.500;11.188;2023-07-31T04:35:51;22.10;99.90
32865;DHT22;19219;44.500;11.188;2023-07-31T04:38:21;22.00;99.90
32865;DHT22;19219;44.500;11.188;2023-07-31T04:40:47;22.00;99.90
32865;DHT22;19219;44.500;11.188;2023-07-31T04:43:13;22.00;99.90
32865;DHT22;19219;44.500;11.188;2023-07-31T04:45:38;22.00;99.90
32865;DHT22;19219;44.500;11.188;2023-07-31T04:48:04;22.00;99.90
32865;DHT22;19219;44.500;11.188;2023-07-31T04:50:30;22.00;99.90
32865;DHT22;19219;44.500;11.188;2023-07-31T04:52:56;22.00;99.90
32865;DHT22;19219;44.500;11.188;2023-07-31T04:55:22;22.00;99.90
32865;DHT22;19219;44.500;11.188;2023-07-31T04:57:47;21.90;99.90
32865;DHT22;19219;44.500;11.188;2023-07-31T05:00:13;22.00;99.90
32865;DHT22;19219;44.500;11.188;2023-07-31T05:02:39;22.10;99.90
32865;DHT22;19219;44.500;11.188;2023-07-31T05:05:04;22.20;99.90
32865;DHT22;19219;44.500;11.188;2023-07-31T05:07:30;22.20;99.90
32865;DHT22;19219;44.500;11.188;2023-07-31T05:09:56;22.30;99.90
32865;DHT22;19219;44.500;11.188;2023-07-31T05:12:22;22.50;99.90
32865;DHT22;19219;44.500;11.188;2023-07-31T05:14:47;22.60;99.90
32865;DHT22;19219;44.500;11.188;2023-07-31T05:17:13;22.80;99.90
32865;DHT22;19219;44.500;11.188;2023-07-31T05:19:38;22.90;99.90
32865;DHT22;19219;44.500;11.188;2023-07-31T05:22:04;23.00;99.90
32865;DHT22;19219;44.500;11.188;2023-07-31T05:24:30;23.10;99.90
32865;DHT22;19219;44.500;11.188;2023-07-31T05:26:56;23.10;99.90
32865;DHT22;19219;44.500;11.188;2023-07-31T05:29:21;23.20;99.90
32865;DHT22;19219;44.500;11.188;2023-07-31T05:31:47;23.30;99.90
32865;DHT22;19219;44.500;11.188;2023-07-31T05:34:13;23.40;99.90
32865;DHT22;19219;44.500;11.188;2023-07-31T05:36:38;23.50;99.90
32865;DHT22;19219;44.500;11.188;2023-07-31T05:39:04;23.60;99.90
32865;DHT22;19219;44.500;11.188;2023-07-31T05:41:32;23.60;99.90
32865;DHT22;19219;44.500;11.188;2023-07-31T05:43:58;23.60;99.90
32865;DHT22;19219;44.500;11.188;2023-07-31T05:46:24;23.80;99.90
32865;DHT22;19219;44.500;11.188;2023-07-31T05:48:49;23.90;99.90
32865;DHT22;19219;44.500;11.188;2023-07-31T05:51:15;24.00;99.90
32865;DHT22;19219;44.500;11.188;2023-07-31T05:53:41;24.20;99.90
32865;DHT22;19219;44.500;11.188;2023-07-31T05:56:07;24.10;99.90
32865;DHT22;19219;44.500;11.188;2023-07-31T05:58:32;24.20;99.90
32865;DHT22;19219;44.500;11.188;2023-07-31T06:00:58;24.30;99.90
32865;DHT22;19219;44.500;11.188;2023-07-31T06:03:24;24.40;99.90
32865;DHT22;19219;44.500;11.188;2023-07-31T06:05:49;24.40;99.90
32865;DHT22;19219;44.500;11.188;2023-07-31T06:08:15;24.40;99.90
32865;DHT22;19219;44.500;11.188;2023-07-31T06:10:41;24.50;99.90
32865;DHT22;19219;44.500;11.188;2023-07-31T06:13:07;24.50;99.90
32865;DHT22;19219;44.500;11.188;2023-07-31T06:15:32;24.60;99.90
32865;DHT22;19219;44.500;11.188;2023-07-31T06:17:58;24.70;99.90
32865;DHT22;19219;44.500;11.188;2023-07-31T06:20:24;24.80;99.90
32865;DHT22;19219;44.500;11.188;2023-07-31T06:22:50;24.90;99.90
32865;DHT22;19219;44.500;11.188;2023-07-31T06:25:16;25.10;99.90
32865;DHT22;19219;44.500;11.188;2023-07-31T06:27:41;25.40;99.90
32865;DHT22;19219;44.500;11.188;2023-07-31T06:30:07;25.90;99.90
32865;DHT22;19219;44.500;11.188;2023-07-31T06:32:33;26.50;99.90
32865;DHT22;19219;44.500;11.188;2023-07-31T06:34:59;27.10;99.90
32865;DHT22;19219;44.500;11.188;2023-07-31T06:37:24;27.50;99.90
32865;DHT22;19219;44.500;11.188;2023-07-31T06:39:50;27.90;99.90
32865;DHT22;19219;44.500;11.188;2023-07-31T06:42:16;28.20;99.90
32865;DHT22;19219;44.500;11.188;2023-07-31T06:44:41;28.50;99.90
32865;DHT22;19219;44.500;11.188;2023-07-31T06:47:07;28.70;99.90
32865;DHT22;19219;44.500;11.188;2023-07-31T06:49:33;29.00;99.90
32865;DHT22;19219;44.500;11.188;2023-07-31T06:51:58;29.20;99.90
32865;DHT22;19219;44.500;11.188;2023-07-31T06:54:24;29.40;99.90
32865;DHT22;19219;44.500;11.188;2023-07-31T06:56:50;29.60;99.90
32865;DHT22;19219;44.500;11.188;2023-07-31T06:59:15;29.80;99.90
32865;DHT22;19219;44.500;11.188;2023-07-31T07:01:41;29.80;99.90
32865;DHT22;19219;44.500;11.188;2023-07-31T07:04:07;30.00;99.90
32865;DHT22;19219;44.500;11.188;2023-07-31T07:06:32;30.20;99.90
32865;DHT22;19219;44.500;11.188;2023-07-31T07:08:58;30.40;99.90
32865;DHT22;19219;44.500;11.188;2023-07-31T07:11:23;29.90;99.90
32865;DHT22;19219;44.500;11.188;2023-07-31T07:13:49;30.00;99.90
32865;DHT22;19219;44.500;11.188;2023-07-31T07:16:15;30.20;99.90
32865;DHT22;19219;44.500;11.188;2023-07-31T07:18:41;30.50;99.90
32865;DHT22;19219;44.500;11.188;2023-07-31T07:21:06;30.70;99.90
32865;DHT22;19219;44.500;11.188;2023-07-31T07:23:32;30.80;99.90
32865;DHT22;19219;44.500;11.188;2023-07-31T07:25:57;30.70;99.90
32865;DHT22;19219;44.500;11.188;2023-07-31T07:28:23;30.80;99.90
32865;DHT22;19219;44.500;11.188;2023-07-31T07:30:52;30.70;99.90
32865;DHT22;19219;44.500;11.188;2023-07-31T07:33:18;30.60;99.90
32865;DHT22;19219;44.500;11.188;2023-07-31T07:35:44;30.60;99.90
32865;DHT22;19219;44.500;11.188;2023-07-31T07:38:10;30.30;99.90
32865;DHT22;19219;44.500;11.188;2023-07-31T07:40:39;30.00;99.90
32865;DHT22;19219;44.500;11.188;2023-07-31T07:43:05;30.30;99.90
32865;DHT22;19219;44.500;11.188;2023-07-31T07:45:31;30.40;99.90
32865;DHT22;19219;44.500;11.188;2023-07-31T07:47:56;30.70;99.90
32865;DHT22;19219;44.500;11.188;2023-07-31T07:50:23;30.80;99.90
32865;DHT22;19219;44.500;11.188;2023-07-31T07:52:48;30.90;99.90
32865;DHT22;19219;44.500;11.188;2023-07-31T07:55:14;31.10;99.90
32865;DHT22;19219;44.500;11.188;2023-07-31T07:57:40;31.00;99.90
32865;DHT22;19219;44.500;11.188;2023-07-31T08:00:06;31.10;99.90
32865;DHT22;19219;44.500;11.188;2023-07-31T08:02:32;31.30;99.90
32865;DHT22;19219;44.500;11.188;2023-07-31T08:04:58;31.60;99.90
32865;DHT22;19219;44.500;11.188;2023-07-31T08:07:24;31.70;99.90
32865;DHT22;19219;44.500;11.188;2023-07-31T08:09:50;31.80;99.90
32865;DHT22;19219;44.500;11.188;2023-07-31T08:12:16;31.70;99.90
32865;DHT22;19219;44.500;11.188;2023-07-31T08:14:42;31.70;99.90
32865;DHT22;19219;44.500;11.188;2023-07-31T08:17:07;31.40;99.90
32865;DHT22;19219;44.500;11.188;2023-07-31T08:19:34;31.20;99.90
32865;DHT22;19219;44.500;11.188;2023-07-31T08:21:59;30.60;99.90
32865;DHT22;19219;44.500;11.188;2023-07-31T08:24:25;30.60;99.90
32865;DHT22;19219;44.500;11.188;2023-07-31T08:26:51;30.50;99.90
32865;DHT22;19219;44.500;11.188;2023-07-31T08:29:16;30.40;99.90
32865;DHT22;19219;44.500;11.188;2023-07-31T08:31:42;30.30;99.90
32865;DHT22;19219;44.500;11.188;2023-07-31T08:34:08;30.30;99.90
32865;DHT22;19219;44.500;11.188;2023-07-31T08:36:33;30.40;99.90
32865;DHT22;19219;44.500;11.188;2023-07-31T08:38:59;30.30;99.90
32865;DHT22;19219;44.500;11.188;2023-07-31T08:41:25;30.10;99.90
32865;DHT22;19219;44.500;11.188;2023-07-31T08:43:52;30.00;99.90
32865;DHT22;19219;44.500;11.188;2023-07-31T08:46:18;30.10;99.90
32865;DHT22;19219;44.500;11.188;2023-07-31T08:48:45;29.90;99.90
32865;DHT22;19219;44.500;11.188;2023-07-31T08:51:14;29.90;99.90
32865;DHT22;19219;44.500;11.188;2023-07-31T08:53:40;29.90;99.90
32865;DHT22;19219;44.500;11.188;2023-07-31T08:56:06;30.10;99.90
32865;DHT22;19219;44.500;11.188;2023-07-31T08:58:33;30.60;99.90
32865;DHT22;19219;44.500;11.188;2023-07-31T09:01:03;30.70;99.90
32865;DHT22;19219;44.500;11.188;2023-07-31T09:03:33;30.70;99.90
32865;DHT22;19219;44.500;11.188;2023-07-31T09:05:59;30.70;99.90
32865;DHT22;19219;44.500;11.188;2023-07-31T09:08:26;30.80;99.90
32865;DHT22;19219;44.500;11.188;2023-07-31T09:10:59;30.70;99.90
32865;DHT22;19219;44.500;11.188;2023-07-31T09:13:27;30.50;99.90
32865;DHT22;19219;44.500;11.188;2023-07-31T09:15:53;30.60;99.90
32865;DHT22;19219;44.500;11.188;2023-07-31T09:18:18;30.90;99.90
32865;DHT22;19219;44.500;11.188;2023-07-31T09:21:03;31.40;99.90
32865;DHT22;19219;44.500;11.188;2023-07-31T09:23:43;31.70;99.90
32865;DHT22;19219;44.500;11.188;2023-07-31T09:26:09;31.80;99.90
32865;DHT22;19219;44.500;11.188;2023-07-31T09:28:35;32.10;99.90
32865;DHT22;19219;44.500;11.188;2023-07-31T09:31:01;32.10;99.90
32865;DHT22;19219;44.500;11.188;2023-07-31T09:33:27;32.30;99.90
32865;DHT22;19219;44.500;11.188;2023-07-31T09:35:52;32.40;99.90
32865;DHT22;19219;44.500;11.188;2023-07-31T09:38:18;32.00;99.90
32865;DHT22;19219;44.500;11.188;2023-07-31T09:40:46;31.80;99.90
32865;DHT22;19219;44.500;11.188;2023-07-31T09:43:16;32.00;99.90
32865;DHT22;19219;44.500;11.188;2023-07-31T09:45:43;32.10;99.90
32865;DHT22;19219;44.500;11.188;2023-07-31T09:48:16;32.20;99.90
32865;DHT22;19219;44.500;11.188;2023-07-31T09:50:46;32.30;99.90
32865;DHT22;19219;44.500;11.188;2023-07-31T09:53:12;32.50;99.90
32865;DHT22;19219;44.500;11.188;2023-07-31T09:55:39;32.50;99.90
32865;DHT22;19219;44.500;11.188;2023-07-31T09:58:09;32.20;99.90
32865;DHT22;19219;44.500;11.188;2023-07-31T10:00:36;32.20;99.90
32865;DHT22;19219;44.500;11.188;2023-07-31T10:03:08;32.20;99.90
32865;DHT22;19219;44.500;11.188;2023-07-31T10:08:01;32.20;99.90
32865;DHT22;19219;44.500;11.188;2023-07-31T10:10:27;32.50;99.90
32865;DHT22;19219;44.500;11.188;2023-07-31T10:12:54;32.30;99.90
32865;DHT22;19219;44.500;11.188;2023-07-31T10:15:21;32.30;99.90
32865;DHT22;19219;44.500;11.188;2023-07-31T10:17:48;32.20;99.90
32865;DHT22;19219;44.500;11.188;2023-07-31T10:20:15;32.30;99.90
32865;DHT22;19219;44.500;11.188;2023-07-31T10:22:44;32.50;99.90
32865;DHT22;19219;44.500;11.188;2023-07-31T10:25:13;32.80;99.90
32865;DHT22;19219;44.500;11.188;2023-07-31T10:27:40;33.20;99.90
32865;DHT22;19219;44.500;11.188;2023-07-31T10:30:09;33.20;99.90
32865;DHT22;19219;44.500;11.188;2023-07-31T10:32:36;33.10;99.90
32865;DHT22;19219;44.500;11.188;2023-07-31T10:35:04;33.30;99.90
32865;DHT22;19219;44.500;11.188;2023-07-31T10:37:40;33.50;99.90
32865;DHT22;19219;44.500;11.188;2023-07-31T10:40:11;33.20;99.90
32865;DHT22;19219;44.500;11.188;2023-07-31T10:42:51;33.20;99.90
32865;DHT22;19219;44.500;11.188;2023-07-31T10:45:33;33.00;99.90
32865;DHT22;19219;44.500;11.188;2023-07-31T10:48:22;33.10;99.90
32865;DHT22;19219;44.500;11.188;2023-07-31T10:50:55;33.10;99.90
32865;DHT22;19219;44.500;11.188;2023-07-31T10:53:26;33.10;99.90
32865;DHT22;19219;44.500;11.188;2023-07-31T10:55:52;33.00;99.90
32865;DHT22;19219;44.500;11.188;2023-07-31T10:58:19;33.10;99.90
32865;DHT22;19219;44.500;11.188;2023-07-31T11:00:46;33.20;99.90
32865;DHT22;19219;44.500;11.188;2023-07-31T11:03:18;33.20;99.90
32865;DHT22;19219;44.500;11.188;2023-07-31T11:08:28;32.70;99.90
32865;DHT22;19219;44.500;11.188;2023-07-31T11:13:29;32.90;99.90
32865;DHT22;19219;44.500;11.188;2023-07-31T11:15:55;33.00;99.90
32865;DHT22;19219;44.500;11.188;2023-07-31T11:18:21;33.00;99.90
32865;DHT22;19219;44.500;11.188;2023-07-31T11:20:47;33.20;99.90
32865;DHT22;19219;44.500;11.188;2023-07-31T11:23:12;33.50;99.90
32865;DHT22;19219;44.500;11.188;2023-07-31T11:25:39;33.20;99.90
32865;DHT22;19219;44.500;11.188;2023-07-31T11:28:12;32.90;99.90
32865;DHT22;19219;44.500;11.188;2023-07-31T11:30:39;32.90;99.90
32865;DHT22;19219;44.500;11.188;2023-07-31T11:33:06;32.80;99.90
32865;DHT22;19219;44.500;11.188;2023-07-31T11:35:34;32.70;99.90
32865;DHT22;19219;44.500;11.188;2023-07-31T11:38:00;32.90;99.90
32865;DHT22;19219;44.500;11.188;2023-07-31T11:40:27;33.00;99.90
32865;DHT22;19219;44.500;11.188;2023-07-31T11:43:04;32.90;99.90
32865;DHT22;19219;44.500;11.188;2023-07-31T11:45:30;33.00;99.90
32865;DHT22;19219;44.500;11.188;2023-07-31T11:47:56;33.10;99.90
32865;DHT22;19219;44.500;11.188;2023-07-31T11:50:23;33.10;99.90
32865;DHT22;19219;44.500;11.188;2023-07-31T11:52:59;33.10;99.90
32865;DHT22;19219;44.500;11.188;2023-07-31T11:55:26;33.20;99.90
32865;DHT22;19219;44.500;11.188;2023-07-31T11:57:55;33.30;99.90
32865;DHT22;19219;44.500;11.188;2023-07-31T12:00:21;33.10;99.90
32865;DHT22;19219;44.500;11.188;2023-07-31T12:02:47;33.20;99.90
32865;DHT22;19219;44.500;11.188;2023-07-31T12:05:14;33.30;99.90
32865;DHT22;19219;44.500;11.188;2023-07-31T12:07:46;33.40;99.90
32865;DHT22;19219;44.500;11.188;2023-07-31T12:15:35;33.30;99.90
32865;DHT22;19219;44.500;11.188;2023-07-31T12:18:12;33.20;99.90
32865;DHT22;19219;44.500;11.188;2023-07-31T12:20:53;33.40;99.90
32865;DHT22;19219;44.500;11.188;2023-07-31T12:23:21;33.40;99.90
32865;DHT22;19219;44.500;11.188;2023-07-31T12:26:04;33.40;99.90
32865;DHT22;19219;44.500;11.188;2023-07-31T12:28:39;33.30;99.90
32865;DHT22;19219;44.500;11.188;2023-07-31T12:31:06;33.40;99.90
32865;DHT22;19219;44.500;11.188;2023-07-31T12:33:34;33.40;99.90
32865;DHT22;19219;44.500;11.188;2023-07-31T12:36:02;33.40;99.90
32865;DHT22;19219;44.500;11.188;2023-07-31T12:38:28;33.40;99.90
32865;DHT22;19219;44.500;11.188;2023-07-31T12:40:54;33.50;99.90
32865;DHT22;19219;44.500;11.188;2023-07-31T12:43:20;33.50;99.90
32865;DHT22;19219;44.500;11.188;2023-07-31T12:45:45;33.60;99.90
32865;DHT22;19219;44.500;11.188;2023-07-31T12:48:13;33.50;99.90
32865;DHT22;19219;44.500;11.188;2023-07-31T12:50:39;33.50;99.90
32865;DHT22;19219;44.500;11.188;2023-07-31T12:53:05;33.50;99.90
32865;DHT22;19219;44.500;11.188;2023-07-31T12:55:31;33.30;99.90
32865;DHT22;19219;44.500;11.188;2023-07-31T12:57:58;33.20;99.90
32865;DHT22;19219;44.500;11.188;2023-07-31T13:00:24;33.20;99.90
32865;DHT22;19219;44.500;11.188;2023-07-31T13:02:51;33.30;99.90
32865;DHT22;19219;44.500;11.188;2023-07-31T13:05:16;33.40;99.90
32865;DHT22;19219;44.500;11.188;2023-07-31T13:07:42;33.40;99.90
32865;DHT22;19219;44.500;11.188;2023-07-31T13:10:08;33.40;99.90
32865;DHT22;19219;44.500;11.188;2023-07-31T13:12:34;33.50;99.90
32865;DHT22;19219;44.500;11.188;2023-07-31T13:15:00;33.50;99.90
32865;DHT22;19219;44.500;11.188;2023-07-31T13:17:25;33.40;99.90
32865;DHT22;19219;44.500;11.188;2023-07-31T13:19:52;33.30;99.90
32865;DHT22;19219;44.500;11.188;2023-07-31T13:22:17;33.40;99.90
32865;DHT22;19219;44.500;11.188;2023-07-31T13:24:43;33.40;99.90
32865;DHT22;19219;44.500;11.188;2023-07-31T13:27:09;33.30;99.90
32865;DHT22;19219;44.500;11.188;2023-07-31T13:29:34;33.30;99.90
32865;DHT22;19219;44.500;11.188;2023-07-31T13:32:00;33.30;99.90
32865;DHT22;19219;44.500;11.188;2023-07-31T13:34:26;33.40;99.90
32865;DHT22;19219;44.500;11.188;2023-07-31T13:36:53;33.50;99.90
32865;DHT22;19219;44.500;11.188;2023-07-31T13:39:19;33.50;99.90
32865;DHT22;19219;44.500;11.188;2023-07-31T13:41:45;33.60;99.90
32865;DHT22;19219;44.500;11.188;2023-07-31T13:44:10;33.70;99.90
32865;DHT22;19219;44.500;11.188;2023-07-31T13:46:36;33.80;99.90
32865;DHT22;19219;44.500;11.188;2023-07-31T13:49:02;33.80;99.90
32865;DHT22;19219;44.500;11.188;2023-07-31T13:51:27;33.90;99.90
32865;DHT22;19219;44.500;11.188;2023-07-31T13:53:54;34.00;99.90
32865;DHT22;19219;44.500;11.188;2023-07-31T13:56:19;34.10;99.90
32865;DHT22;19219;44.500;11.188;2023-07-31T13:58:45;33.90;99.90
32865;DHT22;19219;44.500;11.188;2023-07-31T14:01:11;33.80;99.90
32865;DHT22;19219;44.500;11.188;2023-07-31T14:03:36;33.90;99.90
32865;DHT22;19219;44.500;11.188;2023-07-31T14:06:02;33.90;99.90
32865;DHT22;19219;44.500;11.188;2023-07-31T14:08:28;33.90;99.90
32865;DHT22;19219;44.500;11.188;2023-07-31T14:10:55;33.90;99.90
32865;DHT22;19219;44.500;11.188;2023-07-31T14:13:20;34.00;99.40
32865;DHT22;19219;44.500;11.188;2023-07-31T14:15:46;34.00;99.80
32865;DHT22;19219;44.500;11.188;2023-07-31T14:18:12;34.10;99.90
32865;DHT22;19219;44.500;11.188;2023-07-31T14:20:37;34.10;99.70
32865;DHT22;19219;44.500;11.188;2023-07-31T14:23:03;34.20;99.90
32865;DHT22;19219;44.500;11.188;2023-07-31T14:25:29;34.20;99.90
32865;DHT22;19219;44.500;11.188;2023-07-31T14:27:55;34.10;99.90
32865;DHT22;19219;44.500;11.188;2023-07-31T14:30:21;33.80;99.90
32865;DHT22;19219;44.500;11.188;2023-07-31T14:32:47;33.60;99.90
32865;DHT22;19219;44.500;11.188;2023-07-31T14:35:12;33.60;99.90
32865;DHT22;19219;44.500;11.188;2023-07-31T14:37:42;33.70;99.90
32865;DHT22;19219;44.500;11.188;2023-07-31T14:40:10;33.80;99.40
32865;DHT22;19219;44.500;11.188;2023-07-31T14:42:36;33.90;99.30
32865;DHT22;19219;44.500;11.188;2023-07-31T14:45:03;34.00;99.40
32865;DHT22;19219;44.500;11.188;2023-07-31T14:47:29;34.10;99.90
32865;DHT22;19219;44.500;11.188;2023-07-31T14:49:56;34.10;99.30
32865;DHT22;19219;44.500;11.188;2023-07-31T14:52:22;34.10;99.90
32865;DHT22;19219;44.500;11.188;2023-07-31T14:54:48;33.80;99.50
32865;DHT22;19219;44.500;11.188;2023-07-31T14:57:13;33.70;98.80
32865;DHT22;19219;44.500;11.188;2023-07-31T14:59:39;33.80;99.10
32865;DHT22;19219;44.500;11.188;2023-07-31T15:02:05;33.90;99.40
32865;DHT22;19219;44.500;11.188;2023-07-31T15:04:31;33.90;99.10
32865;DHT22;19219;44.500;11.188;2023-07-31T15:06:57;34.00;98.70
32865;DHT22;19219;44.500;11.188;2023-07-31T15:09:22;34.00;98.50
32865;DHT22;19219;44.500;11.188;2023-07-31T15:11:48;34.00;97.80
32865;DHT22;19219;44.500;11.188;2023-07-31T15:14:14;33.90;98.10
32865;DHT22;19219;44.500;11.188;2023-07-31T15:16:39;34.10;99.10
32865;DHT22;19219;44.500;11.188;2023-07-31T15:19:05;34.10;98.00
32865;DHT22;19219;44.500;11.188;2023-07-31T15:21:30;34.10;98.10
32865;DHT22;19219;44.500;11.188;2023-07-31T15:23:56;34.00;98.60
32865;DHT22;19219;44.500;11.188;2023-07-31T15:26:22;34.00;98.00
32865;DHT22;19219;44.500;11.188;2023-07-31T15:28:50;33.90;98.20
32865;DHT22;19219;44.500;11.188;2023-07-31T15:31:15;34.00;99.30